Time;durP1;ratioP1;P1;durP2;ratioP2;P2;SDS_P1;SDS_P2;PMS_P1;PMS_P2;Temp;Humidity;BMP_temperature;BMP_pressure;BME280_temperature;BME280_humidity;BME280_pressure;Samples;Min_cycle;Max_cycle;Signal;HPM_P1;HPM_P2
2021/09/12 00:01:59;;;;;;;;;;;16.70;1.00;;;;;;5111663;28;19908;-72
2021/09/12 00:04:25;;;;;;;;;;;16.70;1.00;;;;;;5112275;28;19946;-71
2021/09/12 00:06:50;;;;;;;;;;;16.70;1.00;;;;;;5111704;28;20006;-71
2021/09/12 00:09:16;;;;;;;;;;;16.60;1.00;;;;;;5112117;28;19908;-71
2021/09/12 00:11:41;;;;;;;;;;;16.60;1.00;;;;;;5111852;28;19914;-71
2021/09/12 00:14:07;;;;;;;;;;;16.50;1.00;;;;;;5110252;28;19939;-71
2021/09/12 00:16:33;;;;;;;;;;;16.50;1.00;;;;;;5111491;28;19954;-72
2021/09/12 00:18:58;;;;;;;;;;;16.40;1.00;;;;;;5112266;28;19912;-71
2021/09/12 00:21:23;;;;;;;;;;;16.50;1.00;;;;;;5110744;28;19915;-71
2021/09/12 00:23:49;;;;;;;;;;;16.40;1.00;;;;;;5111158;28;19914;-71
2021/09/12 00:26:16;;;;;;;;;;;16.40;1.00;;;;;;5100276;28;20322;-71
2021/09/12 00:28:41;;;;;;;;;;;16.50;1.00;;;;;;5096455;28;19933;-71
2021/09/12 00:31:07;;;;;;;;;;;16.50;1.00;;;;;;5110817;28;19908;-71
2021/09/12 00:33:32;;;;;;;;;;;16.50;1.00;;;;;;5111009;28;19908;-71
2021/09/12 00:35:58;;;;;;;;;;;16.50;1.00;;;;;;5110286;28;19923;-71
2021/09/12 00:38:24;;;;;;;;;;;16.60;1.00;;;;;;5111654;28;19911;-71
2021/09/12 00:40:49;;;;;;;;;;;16.60;1.00;;;;;;5110796;28;19912;-71
2021/09/12 00:43:15;;;;;;;;;;;16.60;1.00;;;;;;5110133;28;19935;-71
2021/09/12 00:45:40;;;;;;;;;;;16.60;1.00;;;;;;5111020;28;19912;-71
2021/09/12 00:48:09;;;;;;;;;;;16.70;1.00;;;;;;5111464;28;20388;-71
2021/09/12 00:50:35;;;;;;;;;;;16.70;1.00;;;;;;5110472;28;19912;-71
2021/09/12 00:53:01;;;;;;;;;;;16.80;1.00;;;;;;5110486;28;20720;-71
2021/09/12 00:55:27;;;;;;;;;;;16.80;1.00;;;;;;5111211;28;19908;-71
2021/09/12 00:57:53;;;;;;;;;;;16.70;1.00;;;;;;5110732;28;19918;-71
2021/09/12 01:00:18;;;;;;;;;;;16.70;1.00;;;;;;5111187;28;20323;-72
2021/09/12 01:02:44;;;;;;;;;;;16.60;1.00;;;;;;5121201;27;19911;-71
2021/09/12 01:05:09;;;;;;;;;;;16.60;1.00;;;;;;5130375;27;19911;-71
2021/09/12 01:07:35;;;;;;;;;;;16.50;1.00;;;;;;5131699;27;19934;-71
2021/09/12 01:10:02;;;;;;;;;;;16.40;1.00;;;;;;5131421;27;20167;-71
2021/09/12 01:12:28;;;;;;;;;;;16.40;1.00;;;;;;5130333;27;19914;-71
2021/09/12 01:14:54;;;;;;;;;;;16.40;1.00;;;;;;5111626;27;20251;-71
2021/09/12 01:17:24;;;;;;;;;;;16.40;1.00;;;;;;5110131;28;19908;-70
2021/09/12 01:19:50;;;;;;;;;;;16.40;1.00;;;;;;5109407;28;20332;-71
2021/09/12 01:22:15;;;;;;;;;;;16.30;1.00;;;;;;5109779;28;19908;-71
2021/09/12 01:24:41;;;;;;;;;;;16.40;1.00;;;;;;5110096;28;19949;-72
2021/09/12 01:27:07;;;;;;;;;;;16.30;1.00;;;;;;5091185;28;19914;-71
2021/09/12 01:29:33;;;;;;;;;;;16.20;1.00;;;;;;5109121;28;19947;-70
2021/09/12 01:31:58;;;;;;;;;;;16.20;1.00;;;;;;5109526;28;20041;-71
2021/09/12 01:34:24;;;;;;;;;;;16.20;1.00;;;;;;5109048;28;19920;-70
2021/09/12 01:36:49;;;;;;;;;;;16.20;1.00;;;;;;5110558;28;19908;-71
2021/09/12 01:39:15;;;;;;;;;;;16.20;1.00;;;;;;5109856;28;19908;-71
2021/09/12 01:41:40;;;;;;;;;;;16.10;1.00;;;;;;5109978;28;20008;-70
2021/09/12 01:44:06;;;;;;;;;;;16.10;1.00;;;;;;5108958;28;20347;-71
2021/09/12 01:46:32;;;;;;;;;;;16.00;1.00;;;;;;5110214;28;19908;-71
2021/09/12 01:49:00;;;;;;;;;;;16.00;1.00;;;;;;5110125;28;19951;-71
2021/09/12 01:51:25;;;;;;;;;;;15.90;1.00;;;;;;5108933;28;19916;-71
2021/09/12 01:53:51;;;;;;;;;;;15.90;1.00;;;;;;5109562;28;20418;-71
2021/09/12 01:56:16;;;;;;;;;;;15.90;1.00;;;;;;5109904;28;19912;-71
2021/09/12 01:58:42;;;;;;;;;;;15.80;1.00;;;;;;5109929;28;19959;-70
2021/09/12 02:01:08;;;;;;;;;;;15.80;1.00;;;;;;5091258;28;19916;-71
2021/09/12 02:03:33;;;;;;;;;;;15.70;1.00;;;;;;5127707;27;19916;-71
2021/09/12 02:05:59;;;;;;;;;;;15.70;1.00;;;;;;5129526;27;20295;-71
2021/09/12 02:08:25;;;;;;;;;;;15.60;1.00;;;;;;5130668;27;19966;-71
2021/09/12 02:10:51;;;;;;;;;;;15.60;1.00;;;;;;5111777;28;19912;-71
2021/09/12 02:13:16;;;;;;;;;;;15.50;1.00;;;;;;5124164;28;19908;-71
2021/09/12 02:15:42;;;;;;;;;;;15.50;1.00;;;;;;5109345;28;20337;-71
2021/09/12 02:18:07;;;;;;;;;;;15.50;1.00;;;;;;5109575;28;19915;-71
2021/09/12 02:20:33;;;;;;;;;;;15.40;1.00;;;;;;5109334;28;19922;-71
2021/09/12 02:22:58;;;;;;;;;;;15.40;1.00;;;;;;5108967;28;19991;-71
2021/09/12 02:25:24;;;;;;;;;;;15.40;1.00;;;;;;5105196;28;19912;-71
2021/09/12 02:27:49;;;;;;;;;;;15.40;1.00;;;;;;5070458;28;19919;-71
2021/09/12 02:30:15;;;;;;;;;;;15.30;1.00;;;;;;5108382;28;19968;-71
2021/09/12 02:32:40;;;;;;;;;;;15.30;1.00;;;;;;5108449;28;20006;-71
2021/09/12 02:35:07;;;;;;;;;;;15.30;1.00;;;;;;5108055;28;19969;-72
2021/09/12 02:37:32;;;;;;;;;;;15.30;1.00;;;;;;5109302;28;19908;-71
2021/09/12 02:39:58;;;;;;;;;;;15.20;1.00;;;;;;5111286;28;20404;-71
2021/09/12 02:42:23;;;;;;;;;;;15.20;1.00;;;;;;5112529;28;19991;-72
2021/09/12 02:44:49;;;;;;;;;;;15.10;1.00;;;;;;5112708;28;19908;-72
2021/09/12 02:47:14;;;;;;;;;;;15.10;1.00;;;;;;5112980;28;19960;-71
2021/09/12 02:49:40;;;;;;;;;;;15.00;1.00;;;;;;5112082;28;19908;-71
2021/09/12 02:52:06;;;;;;;;;;;15.00;1.00;;;;;;5112336;28;20345;-71
2021/09/12 02:54:31;;;;;;;;;;;15.10;1.00;;;;;;5112955;28;19914;-71
2021/09/12 02:56:57;;;;;;;;;;;15.00;1.00;;;;;;5113528;28;19909;-71
2021/09/12 02:59:22;;;;;;;;;;;15.00;1.00;;;;;;5112703;28;19961;-71
2021/09/12 03:01:47;;;;;;;;;;;14.90;1.00;;;;;;5112106;28;19907;-72
2021/09/12 03:04:13;;;;;;;;;;;14.90;1.00;;;;;;5111894;28;20006;-71
2021/09/12 03:06:38;;;;;;;;;;;14.90;1.00;;;;;;5113467;28;19956;-71
2021/09/12 03:09:04;;;;;;;;;;;14.90;1.00;;;;;;5113147;28;19908;-71
2021/09/12 03:11:29;;;;;;;;;;;14.80;1.00;;;;;;5113054;28;19908;-71
2021/09/12 03:13:55;;;;;;;;;;;14.80;1.00;;;;;;5093333;28;19924;-71
2021/09/12 03:16:21;;;;;;;;;;;14.80;1.00;;;;;;5112665;28;19959;-72
2021/09/12 03:18:47;;;;;;;;;;;14.70;1.00;;;;;;5113032;28;19923;-71
2021/09/12 03:21:13;;;;;;;;;;;14.80;1.00;;;;;;5111812;28;19922;-71
2021/09/12 03:23:39;;;;;;;;;;;14.80;1.00;;;;;;5112210;28;19911;-72
2021/09/12 03:26:04;;;;;;;;;;;14.70;1.00;;;;;;5102513;28;20376;-72
2021/09/12 03:28:30;;;;;;;;;;;14.60;1.00;;;;;;5096339;28;19915;-72
2021/09/12 03:30:55;;;;;;;;;;;14.70;1.00;;;;;;5112162;28;19907;-72
2021/09/12 03:33:21;;;;;;;;;;;14.60;1.00;;;;;;5111915;28;20026;-72
2021/09/12 03:35:46;;;;;;;;;;;14.60;1.00;;;;;;5112024;28;20018;-71
2021/09/12 03:38:12;;;;;;;;;;;14.70;1.00;;;;;;5112444;28;19911;-71
2021/09/12 03:40:37;;;;;;;;;;;14.70;1.00;;;;;;5112429;28;19912;-71
2021/09/12 03:43:03;;;;;;;;;;;14.70;1.00;;;;;;5111243;28;20675;-71
2021/09/12 03:45:28;;;;;;;;;;;14.70;1.00;;;;;;5112411;28;20290;-71
2021/09/12 03:47:54;;;;;;;;;;;14.70;1.00;;;;;;5111876;28;20015;-72
2021/09/12 03:50:19;;;;;;;;;;;14.70;1.00;;;;;;5092966;28;19915;-71
2021/09/12 03:52:45;;;;;;;;;;;14.70;1.00;;;;;;5110435;28;20458;-71
2021/09/12 03:55:11;;;;;;;;;;;14.70;1.00;;;;;;5112304;28;20226;-71
2021/09/12 03:57:37;;;;;;;;;;;14.70;1.00;;;;;;5111874;28;19984;-71
2021/09/12 04:00:03;;;;;;;;;;;14.60;1.00;;;;;;5110955;28;19912;-71
2021/09/12 04:02:29;;;;;;;;;;;14.60;1.00;;;;;;5120150;27;19915;-72
2021/09/12 04:04:54;;;;;;;;;;;14.50;1.00;;;;;;5131640;27;20038;-72
2021/09/12 04:07:20;;;;;;;;;;;14.50;1.00;;;;;;5132420;27;19908;-72
2021/09/12 04:09:45;;;;;;;;;;;14.50;1.00;;;;;;5113732;27;19919;-71
2021/09/12 04:12:11;;;;;;;;;;;14.50;1.00;;;;;;5131399;27;20340;-71
2021/09/12 04:14:36;;;;;;;;;;;14.50;1.00;;;;;;5115878;27;20041;-71
2021/09/12 04:17:02;;;;;;;;;;;14.50;1.00;;;;;;5111437;28;19915;-70
2021/09/12 04:19:27;;;;;;;;;;;14.50;1.00;;;;;;5110830;28;19968;-70
2021/09/12 04:21:53;;;;;;;;;;;14.50;1.00;;;;;;5111021;28;20018;-73
2021/09/12 04:24:20;;;;;;;;;;;14.50;1.00;;;;;;5110860;28;19919;-69
2021/09/12 04:26:46;;;;;;;;;;;14.60;1.00;;;;;;5111594;28;19941;-71
2021/09/12 04:29:11;;;;;;;;;;;14.60;1.00;;;;;;5111040;28;19908;-71
2021/09/12 04:31:37;;;;;;;;;;;14.70;1.00;;;;;;5110881;28;19919;-71
2021/09/12 04:34:02;;;;;;;;;;;14.70;1.00;;;;;;5110967;28;20010;-72
2021/09/12 04:36:28;;;;;;;;;;;14.80;1.00;;;;;;5110251;28;20360;-71
2021/09/12 04:38:53;;;;;;;;;;;14.80;1.00;;;;;;5111661;28;19911;-71
2021/09/12 04:41:19;;;;;;;;;;;14.80;1.00;;;;;;5111143;28;19943;-72
2021/09/12 04:43:44;;;;;;;;;;;14.80;1.00;;;;;;5110552;28;19951;-72
2021/09/12 04:46:10;;;;;;;;;;;14.80;1.00;;;;;;5110873;28;19915;-71
2021/09/12 04:48:35;;;;;;;;;;;14.80;1.00;;;;;;5106870;28;20493;-71
2021/09/12 04:51:01;;;;;;;;;;;14.80;1.00;;;;;;5109279;28;19961;-72
2021/09/12 04:53:26;;;;;;;;;;;14.80;1.00;;;;;;5110119;28;19922;-72
2021/09/12 04:55:52;;;;;;;;;;;14.70;1.00;;;;;;5110739;28;20387;-71
2021/09/12 04:58:18;;;;;;;;;;;14.70;1.00;;;;;;5109722;28;19949;-71
2021/09/12 05:00:43;;;;;;;;;;;14.70;1.00;;;;;;5110153;28;20031;-72
2021/09/12 05:03:09;;;;;;;;;;;14.60;1.00;;;;;;5123802;27;20405;-71
2021/09/12 05:05:34;;;;;;;;;;;14.60;1.00;;;;;;5122927;27;19939;-71
2021/09/12 05:08:00;;;;;;;;;;;14.60;1.00;;;;;;5110579;28;19912;-72
2021/09/12 05:10:25;;;;;;;;;;;14.60;1.00;;;;;;5109908;28;20283;-71
2021/09/12 05:12:51;;;;;;;;;;;14.60;1.00;;;;;;5108945;28;19908;-71
2021/09/12 05:15:16;;;;;;;;;;;14.70;1.00;;;;;;5110181;28;19927;-71
2021/09/12 05:17:42;;;;;;;;;;;14.80;1.00;;;;;;5110049;28;19908;-72
2021/09/12 05:20:07;;;;;;;;;;;14.90;1.00;;;;;;5108987;28;19911;-71
2021/09/12 05:22:34;;;;;;;;;;;15.20;1.00;;;;;;5109682;28;19964;-72
2021/09/12 05:25:00;;;;;;;;;;;15.60;1.00;;;;;;5109975;28;19912;-72
2021/09/12 05:27:25;;;;;;;;;;;15.90;1.00;;;;;;5110977;28;19908;-71
2021/09/12 05:29:51;;;;;;;;;;;16.10;1.00;;;;;;5109198;28;20380;-72
2021/09/12 05:32:16;;;;;;;;;;;16.10;1.00;;;;;;5109157;28;19919;-71
2021/09/12 05:34:42;;;;;;;;;;;16.10;1.00;;;;;;5109399;28;19911;-71
2021/09/12 05:37:07;;;;;;;;;;;16.10;1.00;;;;;;5110134;28;19911;-72
2021/09/12 05:39:33;;;;;;;;;;;16.00;1.00;;;;;;5109797;28;19950;-72
2021/09/12 05:41:59;;;;;;;;;;;16.00;1.00;;;;;;5109307;28;19943;-72
2021/09/12 05:44:24;;;;;;;;;;;16.00;1.00;;;;;;5110167;28;20081;-71
2021/09/12 05:46:52;;;;;;;;;;;16.10;1.00;;;;;;5109671;28;20288;-71
2021/09/12 05:49:18;;;;;;;;;;;16.10;1.00;;;;;;5103826;28;19968;-71
2021/09/12 05:51:43;;;;;;;;;;;16.10;1.00;;;;;;5107583;28;19919;-70
2021/09/12 05:54:09;;;;;;;;;;;16.10;1.00;;;;;;5109507;28;20376;-70
2021/09/12 05:56:34;;;;;;;;;;;16.20;1.00;;;;;;5110008;28;19915;-71
2021/09/12 05:59:00;;;;;;;;;;;16.20;1.00;;;;;;5108389;28;19908;-71
2021/09/12 06:01:25;;;;;;;;;;;16.20;1.00;;;;;;5108747;28;19958;-71
2021/09/12 06:03:51;;;;;;;;;;;16.30;1.00;;;;;;5109019;28;19908;-71
2021/09/12 06:06:16;;;;;;;;;;;16.40;1.00;;;;;;5108937;28;19964;-71
2021/09/12 06:08:42;;;;;;;;;;;16.50;1.00;;;;;;5108853;28;19916;-71
2021/09/12 06:11:10;;;;;;;;;;;16.60;1.00;;;;;;5108985;28;19908;-73
2021/09/12 06:13:38;;;;;;;;;;;16.80;1.00;;;;;;5104700;28;19919;-71
2021/09/12 06:16:05;;;;;;;;;;;17.00;1.00;;;;;;5115975;28;19912;-72
2021/09/12 06:18:30;;;;;;;;;;;17.30;99.90;;;;;;5106388;28;19908;-72
2021/09/12 06:20:56;;;;;;;;;;;17.90;99.90;;;;;;5076122;28;19922;-71
2021/09/12 06:23:21;;;;;;;;;;;18.90;99.90;;;;;;5095312;28;20396;-72
2021/09/12 06:25:47;;;;;;;;;;;19.60;1.00;;;;;;5096876;28;19908;-71
2021/09/12 06:28:12;;;;;;;;;;;20.50;1.00;;;;;;5115933;28;19911;-72
2021/09/12 06:30:38;;;;;;;;;;;21.30;94.40;;;;;;5115034;28;19985;-71
2021/09/12 06:33:03;;;;;;;;;;;21.60;1.00;;;;;;5114904;28;19918;-71
2021/09/12 06:35:29;;;;;;;;;;;22.40;1.00;;;;;;5114689;28;19911;-72
2021/09/12 06:37:54;;;;;;;;;;;22.60;1.00;;;;;;5116020;28;20287;-72
2021/09/12 06:40:23;;;;;;;;;;;23.00;1.00;;;;;;5115612;28;19918;-70
2021/09/12 06:42:49;;;;;;;;;;;24.30;1.00;;;;;;5096153;28;19918;-72
2021/09/12 06:45:14;;;;;;;;;;;26.20;99.90;;;;;;5115772;28;19908;-73
2021/09/12 06:47:40;;;;;;;;;;;28.30;99.90;;;;;;5115356;28;19961;-72
2021/09/12 06:50:06;;;;;;;;;;;29.90;99.90;;;;;;5114744;28;20342;-72
2021/09/12 06:52:32;;;;;;;;;;;30.20;99.90;;;;;;5111456;28;19924;-71
2021/09/12 06:54:57;;;;;;;;;;;30.80;99.90;;;;;;5076954;28;19915;-71
2021/09/12 06:57:23;;;;;;;;;;;32.40;99.90;;;;;;5094544;28;19912;-71
2021/09/12 06:59:48;;;;;;;;;;;33.00;99.90;;;;;;5105941;28;19908;-71
2021/09/12 07:02:14;;;;;;;;;;;33.10;99.90;;;;;;5106987;28;19976;-71
2021/09/12 07:04:39;;;;;;;;;;;34.00;99.90;;;;;;5099485;28;19935;-72
2021/09/12 07:07:05;;;;;;;;;;;35.20;99.90;;;;;;5104197;28;20045;-72
2021/09/12 07:09:30;;;;;;;;;;;36.40;99.90;;;;;;5084959;28;19912;-70
2021/09/12 07:11:56;;;;;;;;;;;37.50;99.90;;;;;;5103970;28;19919;-72
2021/09/12 07:14:21;;;;;;;;;;;38.60;99.90;;;;;;5106702;28;19915;-71
2021/09/12 07:16:47;;;;;;;;;;;39.00;99.90;;;;;;5104325;28;19915;-72
2021/09/12 07:19:12;;;;;;;;;;;39.50;99.90;;;;;;5102390;28;19911;-70
2021/09/12 07:21:38;;;;;;;;;;;40.10;99.90;;;;;;5086550;28;19931;-69
2021/09/12 07:24:04;;;;;;;;;;;41.00;99.90;;;;;;5105404;28;19992;-72
2021/09/12 07:26:29;;;;;;;;;;;41.90;99.90;;;;;;5104864;28;20509;-72
2021/09/12 07:28:55;;;;;;;;;;;42.30;99.90;;;;;;5107065;28;20010;-72
2021/09/12 07:31:20;;;;;;;;;;;43.20;99.90;;;;;;5099073;28;20369;-71
2021/09/12 07:33:46;;;;;;;;;;;43.30;99.90;;;;;;5104795;28;19941;-71
2021/09/12 07:36:11;;;;;;;;;;;43.90;99.90;;;;;;5111999;28;19908;-72
2021/09/12 07:38:37;;;;;;;;;;;44.10;99.90;;;;;;5112838;28;20407;-71
2021/09/12 07:41:03;;;;;;;;;;;44.30;99.90;;;;;;5093921;28;20398;-72
2021/09/12 07:43:29;;;;;;;;;;;45.10;99.90;;;;;;5110908;28;19908;-72
2021/09/12 07:45:55;;;;;;;;;;;45.70;99.90;;;;;;5112415;28;20046;-70
2021/09/12 07:48:20;;;;;;;;;;;46.30;98.50;;;;;;5113386;28;19915;-70
2021/09/12 07:50:46;;;;;;;;;;;46.20;92.20;;;;;;5111603;28;19915;-71
2021/09/12 07:53:12;;;;;;;;;;;46.50;83.10;;;;;;5113016;27;19919;-71
2021/09/12 07:55:38;;;;;;;;;;;46.90;73.20;;;;;;5114430;27;20248;-72
2021/09/12 07:58:03;;;;;;;;;;;47.90;63.60;;;;;;5112558;27;20436;-71
2021/09/12 08:00:29;;;;;;;;;;;48.20;54.50;;;;;;5102459;28;19912;-72
2021/09/12 08:02:54;;;;;;;;;;;48.60;48.20;;;;;;5110329;28;19968;-72
2021/09/12 08:05:20;;;;;;;;;;;48.70;41.30;;;;;;5102501;28;20380;-71
2021/09/12 08:07:45;;;;;;;;;;;48.90;34.60;;;;;;5104346;28;20007;-71
2021/09/12 08:10:11;;;;;;;;;;;49.70;29.80;;;;;;5102541;28;20003;-71
2021/09/12 08:12:36;;;;;;;;;;;50.40;26.50;;;;;;5100153;28;19916;-71
2021/09/12 08:15:02;;;;;;;;;;;50.90;22.40;;;;;;5119468;28;20355;-71
2021/09/12 08:17:27;;;;;;;;;;;52.10;19.40;;;;;;5116176;28;19912;-72
2021/09/12 08:19:53;;;;;;;;;;;50.70;13.30;;;;;;5113736;28;19971;-72
2021/09/12 08:22:18;;;;;;;;;;;48.40;7.50;;;;;;5111439;28;20037;-71
2021/09/12 08:24:44;;;;;;;;;;;47.40;5.10;;;;;;5112138;28;20447;-71
2021/09/12 08:27:10;;;;;;;;;;;46.60;2.50;;;;;;5112223;28;19908;-71
2021/09/12 08:29:35;;;;;;;;;;;46.80;2.40;;;;;;5110515;28;20648;-72
2021/09/12 08:32:01;;;;;;;;;;;46.30;1.00;;;;;;5091237;28;19907;-72
2021/09/12 08:34:27;;;;;;;;;;;46.50;1.00;;;;;;5110493;28;19991;-71
2021/09/12 08:36:53;;;;;;;;;;;47.30;1.00;;;;;;5111874;28;20333;-72
2021/09/12 08:39:19;;;;;;;;;;;48.10;1.00;;;;;;5110762;28;19958;-71
2021/09/12 08:41:44;;;;;;;;;;;50.40;1.00;;;;;;5110503;28;19926;-71
2021/09/12 08:44:11;;;;;;;;;;;51.40;1.00;;;;;;5106874;28;19923;-71
2021/09/12 08:46:37;;;;;;;;;;;52.60;1.00;;;;;;5100266;28;19915;-72
2021/09/12 08:49:02;;;;;;;;;;;52.70;1.00;;;;;;5101931;28;20335;-71
2021/09/12 08:51:28;;;;;;;;;;;52.00;1.00;;;;;;5100841;28;19916;-71
2021/09/12 08:53:53;;;;;;;;;;;51.70;1.00;;;;;;5103159;28;19954;-72
2021/09/12 08:56:19;;;;;;;;;;;52.20;1.00;;;;;;5102727;28;20380;-72
2021/09/12 08:58:45;;;;;;;;;;;53.10;1.00;;;;;;5091032;28;20011;-71
2021/09/12 09:01:11;;;;;;;;;;;53.50;1.00;;;;;;5109087;28;20478;-72
2021/09/12 09:03:37;;;;;;;;;;;52.70;1.00;;;;;;5099348;28;19919;-70
2021/09/12 09:06:12;;;;;;;;;;;53.00;1.00;;;;;;5106913;28;19912;-72
2021/09/12 09:08:50;;;;;;;;;;;52.10;1.00;;;;;;5107840;28;20372;-72
2021/09/12 09:11:25;;;;;;;;;;;51.40;1.00;;;;;;5108202;28;19908;-72
2021/09/12 09:13:51;;;;;;;;;;;50.00;1.00;;;;;;5106408;28;19914;-71
2021/09/12 09:16:26;;;;;;;;;;;49.90;1.00;;;;;;5107510;28;20002;-72
2021/09/12 09:18:59;;;;;;;;;;;50.20;1.00;;;;;;5106855;28;19919;-72
2021/09/12 09:21:29;;;;;;;;;;;46.30;1.00;;;;;;5107129;28;19912;-71
2021/09/12 09:24:08;;;;;;;;;;;47.60;1.00;;;;;;5107575;28;20357;-70
2021/09/12 09:26:38;;;;;;;;;;;48.90;1.00;;;;;;5106978;28;20363;-72
2021/09/12 09:29:04;;;;;;;;;;;50.40;1.00;;;;;;5107032;28;20376;-71
2021/09/12 09:31:29;;;;;;;;;;;50.50;1.00;;;;;;5106833;27;19912;-69
2021/09/12 09:33:55;;;;;;;;;;;50.80;1.00;;;;;;5106261;28;19911;-70
2021/09/12 09:36:20;;;;;;;;;;;51.20;1.00;;;;;;5105855;28;19912;-69
2021/09/12 09:38:47;;;;;;;;;;;51.90;1.00;;;;;;5106644;28;20315;-69
2021/09/12 09:41:12;;;;;;;;;;;52.30;1.00;;;;;;5106664;28;19911;-69
2021/09/12 09:43:38;;;;;;;;;;;51.20;1.00;;;;;;5105953;28;19918;-69
2021/09/12 09:46:03;;;;;;;;;;;50.10;1.00;;;;;;5106601;28;19918;-70
2021/09/12 09:48:35;;;;;;;;;;;49.00;1.00;;;;;;5106277;28;20386;-70
2021/09/12 09:51:01;;;;;;;;;;;49.10;1.00;;;;;;5105471;28;19936;-69
2021/09/12 09:53:27;;;;;;;;;;;48.50;1.00;;;;;;5103041;28;19915;-70
2021/09/12 09:55:53;;;;;;;;;;;48.30;1.00;;;;;;5089916;28;20237;-69
2021/09/12 09:58:18;;;;;;;;;;;48.70;1.00;;;;;;5106032;28;19927;-68
2021/09/12 10:00:44;;;;;;;;;;;48.80;1.00;;;;;;5106309;28;19961;-70
2021/09/12 10:03:10;;;;;;;;;;;48.90;1.00;;;;;;5100299;28;19919;-70
2021/09/12 10:05:36;;;;;;;;;;;48.50;1.00;;;;;;5084989;28;19912;-71
2021/09/12 10:08:04;;;;;;;;;;;48.00;1.00;;;;;;5086433;28;19919;-71
2021/09/12 10:10:30;;;;;;;;;;;47.40;1.00;;;;;;5085940;28;20319;-71
2021/09/12 10:13:00;;;;;;;;;;;47.10;1.00;;;;;;5086944;28;20304;-71
2021/09/12 10:15:28;;;;;;;;;;;47.20;1.00;;;;;;5099718;28;19916;-70
2021/09/12 10:17:54;;;;;;;;;;;46.80;1.00;;;;;;5085923;28;19924;-71
2021/09/12 10:20:24;;;;;;;;;;;46.10;1.00;;;;;;5085137;28;20014;-70
2021/09/12 10:22:54;;;;;;;;;;;45.00;1.00;;;;;;5085418;28;20006;-70
2021/09/12 10:25:21;;;;;;;;;;;44.20;1.00;;;;;;5102205;28;19936;-71
2021/09/12 10:27:47;;;;;;;;;;;43.20;1.00;;;;;;5103591;28;20748;-69
2021/09/12 10:30:37;;;;;;;;;;;43.20;1.00;;;;;;5107559;28;20235;-70
2021/09/12 10:33:05;;;;;;;;;;;43.10;1.00;;;;;;5107783;28;19912;-71
2021/09/12 10:35:45;;;;;;;;;;;43.30;1.00;;;;;;5108681;28;19927;-71
2021/09/12 10:38:11;;;;;;;;;;;43.80;1.00;;;;;;5109201;28;19955;-71
2021/09/12 10:40:46;;;;;;;;;;;44.20;1.00;;;;;;5108599;28;19945;-71
2021/09/12 10:43:23;;;;;;;;;;;44.40;1.00;;;;;;5107914;28;19955;-70
2021/09/12 10:45:49;;;;;;;;;;;43.90;1.00;;;;;;5108677;28;20018;-71
2021/09/12 10:48:18;;;;;;;;;;;43.70;1.00;;;;;;5109387;28;20109;-71
2021/09/12 10:50:44;;;;;;;;;;;43.60;1.00;;;;;;5108215;28;19914;-71
2021/09/12 10:53:10;;;;;;;;;;;42.70;1.00;;;;;;5108327;28;20006;-70
2021/09/12 10:55:54;;;;;;;;;;;42.60;1.00;;;;;;5128695;28;20343;-70
2021/09/12 10:58:20;;;;;;;;;;;42.80;1.00;;;;;;5129257;28;19934;-70
2021/09/12 11:00:46;;;;;;;;;;;43.20;1.00;;;;;;5110632;28;19911;-70
2021/09/12 11:03:15;;;;;;;;;;;43.20;1.00;;;;;;5106127;28;19908;-71
2021/09/12 11:05:40;;;;;;;;;;;43.10;1.00;;;;;;5092491;28;20355;-71
2021/09/12 11:08:06;;;;;;;;;;;42.00;1.00;;;;;;5093157;28;20058;-72
2021/09/12 11:10:36;;;;;;;;;;;40.60;1.00;;;;;;5093475;28;20351;-71
2021/09/12 11:13:02;;;;;;;;;;;39.50;1.00;;;;;;5107192;28;20380;-70
2021/09/12 11:15:28;;;;;;;;;;;37.40;1.00;;;;;;5098659;28;19909;-71
2021/09/12 11:17:54;;;;;;;;;;;36.40;1.00;;;;;;5095503;28;19916;-71
2021/09/12 11:20:19;;;;;;;;;;;36.50;1.00;;;;;;5107461;28;19976;-71
2021/09/12 11:22:49;;;;;;;;;;;36.90;1.00;;;;;;5117376;28;19915;-70
2021/09/12 11:25:18;;;;;;;;;;;37.30;1.00;;;;;;5117750;28;20333;-70
2021/09/12 11:27:44;;;;;;;;;;;37.40;1.00;;;;;;5116746;28;20264;-71
2021/09/12 11:30:10;;;;;;;;;;;36.80;1.00;;;;;;5115235;28;19912;-70
2021/09/12 11:32:35;;;;;;;;;;;36.20;1.00;;;;;;5116951;28;19908;-71
2021/09/12 11:35:01;;;;;;;;;;;36.00;1.00;;;;;;5116340;28;19915;-71
2021/09/12 11:37:28;;;;;;;;;;;35.80;1.00;;;;;;5116269;28;20384;-72
2021/09/12 11:39:56;;;;;;;;;;;36.10;1.00;;;;;;5114937;28;19912;-72
2021/09/12 11:42:23;;;;;;;;;;;36.40;1.00;;;;;;5112556;28;19911;-70
2021/09/12 11:44:49;;;;;;;;;;;36.70;1.00;;;;;;5108836;28;20018;-70
2021/09/12 11:47:16;;;;;;;;;;;36.50;1.00;;;;;;5092204;28;20448;-72
2021/09/12 11:49:42;;;;;;;;;;;36.00;1.00;;;;;;5091365;28;20348;-72
2021/09/12 11:52:08;;;;;;;;;;;35.80;1.00;;;;;;5091096;28;19920;-71
2021/09/12 11:54:37;;;;;;;;;;;35.20;1.00;;;;;;5104246;28;19919;-71
2021/09/12 11:57:07;;;;;;;;;;;34.50;1.00;;;;;;5111464;28;19908;-71
2021/09/12 11:59:46;;;;;;;;;;;34.30;1.00;;;;;;5102586;28;20252;-71
2021/09/12 12:02:12;;;;;;;;;;;34.40;1.00;;;;;;5090794;28;19947;-71
2021/09/12 12:04:39;;;;;;;;;;;33.80;1.00;;;;;;5091293;28;19919;-72
2021/09/12 12:07:05;;;;;;;;;;;32.90;1.00;;;;;;5090238;28;19939;-71
2021/09/12 12:09:42;;;;;;;;;;;32.40;1.00;;;;;;5092155;28;19940;-71
2021/09/12 12:12:09;;;;;;;;;;;32.60;1.00;;;;;;5090361;28;19926;-72
2021/09/12 12:14:48;;;;;;;;;;;31.70;1.80;;;;;;5108026;28;19908;-70
2021/09/12 12:17:15;;;;;;;;;;;31.80;3.40;;;;;;5111022;28;19918;-71
2021/09/12 12:19:41;;;;;;;;;;;31.70;4.90;;;;;;5111414;28;20298;-71
2021/09/12 12:22:07;;;;;;;;;;;31.50;6.30;;;;;;5111195;28;19916;-71
2021/09/12 12:24:42;;;;;;;;;;;31.60;8.50;;;;;;5111245;28;19915;-71
2021/09/12 12:27:09;;;;;;;;;;;31.60;9.40;;;;;;5093208;28;19958;-71
2021/09/12 12:29:36;;;;;;;;;;;31.40;11.00;;;;;;5104627;28;20363;-71
2021/09/12 12:32:03;;;;;;;;;;;31.70;12.50;;;;;;5111244;28;19923;-70
2021/09/12 12:34:35;;;;;;;;;;;32.30;13.50;;;;;;5110213;28;19991;-71
2021/09/12 12:37:00;;;;;;;;;;;32.20;13.70;;;;;;5111392;28;20559;-71
2021/09/12 12:39:26;;;;;;;;;;;32.00;14.30;;;;;;5110625;28;20022;-72
2021/09/12 12:41:53;;;;;;;;;;;31.90;15.90;;;;;;5110896;28;20367;-71
2021/09/12 12:44:18;;;;;;;;;;;31.50;16.00;;;;;;5110572;28;19911;-71
2021/09/12 12:46:44;;;;;;;;;;;30.70;17.00;;;;;;5120427;27;20295;-71
2021/09/12 12:49:10;;;;;;;;;;;29.50;17.50;;;;;;5127361;27;20237;-71
2021/09/12 12:51:35;;;;;;;;;;;29.30;20.00;;;;;;5110911;28;19927;-71
2021/09/12 12:54:02;;;;;;;;;;;28.90;21.70;;;;;;5110725;28;19912;-73
2021/09/12 12:56:29;;;;;;;;;;;28.30;23.00;;;;;;5110869;28;19908;-70
2021/09/12 12:58:54;;;;;;;;;;;27.90;24.80;;;;;;5110585;28;19915;-72
2021/09/12 13:01:20;;;;;;;;;;;27.60;26.80;;;;;;5110609;28;19932;-73
2021/09/12 13:03:46;;;;;;;;;;;28.00;29.30;;;;;;5111243;28;19908;-71
2021/09/12 13:06:13;;;;;;;;;;;28.60;31.70;;;;;;5111094;28;19908;-72
2021/09/12 13:08:39;;;;;;;;;;;29.00;32.70;;;;;;5111389;28;20257;-70
2021/09/12 13:11:05;;;;;;;;;;;29.20;35.10;;;;;;5111145;28;19999;-71
2021/09/12 13:13:31;;;;;;;;;;;29.40;36.40;;;;;;5109674;28;19915;-71
2021/09/12 13:15:56;;;;;;;;;;;29.40;37.60;;;;;;5110813;28;19912;-72
2021/09/12 13:18:22;;;;;;;;;;;29.40;39.10;;;;;;5110717;28;20360;-72
2021/09/12 13:20:49;;;;;;;;;;;29.40;39.70;;;;;;5110065;28;19937;-72
2021/09/12 13:23:15;;;;;;;;;;;29.20;40.70;;;;;;5109172;28;20010;-72
2021/09/12 13:25:40;;;;;;;;;;;29.00;42.10;;;;;;5103219;28;20004;-72
2021/09/12 13:28:06;;;;;;;;;;;28.70;43.00;;;;;;5090730;28;19912;-72
2021/09/12 13:30:32;;;;;;;;;;;28.50;44.20;;;;;;5110480;28;19926;-72
2021/09/12 13:32:58;;;;;;;;;;;28.50;46.00;;;;;;5109810;28;19959;-72
2021/09/12 13:35:24;;;;;;;;;;;28.50;47.40;;;;;;5109763;28;19967;-72
2021/09/12 13:37:50;;;;;;;;;;;28.50;49.30;;;;;;5110058;28;19977;-72
2021/09/12 13:40:16;;;;;;;;;;;28.60;49.50;;;;;;5109591;28;19977;-74
2021/09/12 13:42:42;;;;;;;;;;;28.40;50.10;;;;;;5109353;28;19912;-71
2021/09/12 13:45:09;;;;;;;;;;;28.30;51.00;;;;;;5109798;28;19907;-71
2021/09/12 13:47:34;;;;;;;;;;;28.40;52.20;;;;;;5126167;27;19933;-72
2021/09/12 13:50:00;;;;;;;;;;;28.20;52.40;;;;;;5129579;27;20003;-70
2021/09/12 13:52:25;;;;;;;;;;;28.10;54.00;;;;;;5129556;27;20298;-73
2021/09/12 13:54:51;;;;;;;;;;;28.10;54.70;;;;;;5129474;27;19907;-72
2021/09/12 13:57:16;;;;;;;;;;;28.10;55.70;;;;;;5128924;27;20754;-70
2021/09/12 13:59:42;;;;;;;;;;;28.00;56.00;;;;;;5127628;27;19957;-71
2021/09/12 14:02:08;;;;;;;;;;;28.00;57.60;;;;;;5126823;27;20006;-71
2021/09/12 14:04:38;;;;;;;;;;;27.90;58.60;;;;;;5127388;27;19922;-72
2021/09/12 14:07:04;;;;;;;;;;;27.80;59.30;;;;;;5128729;27;20278;-71
2021/09/12 14:09:30;;;;;;;;;;;27.70;60.80;;;;;;5109123;27;19968;-71
2021/09/12 14:11:55;;;;;;;;;;;27.70;62.00;;;;;;5113389;27;19915;-71
2021/09/12 14:14:21;;;;;;;;;;;27.60;64.00;;;;;;5104149;28;19907;-71
2021/09/12 14:16:46;;;;;;;;;;;27.60;65.70;;;;;;5107588;28;20252;-71
2021/09/12 14:19:12;;;;;;;;;;;27.50;66.70;;;;;;5106525;28;20362;-71
2021/09/12 14:21:37;;;;;;;;;;;27.40;68.00;;;;;;5104495;28;20372;-72